Terminal Aerodrome Forecast
Issued by NWS

Home | Current Version | Previous Version | Text Only | Print | Product List | Glossary On
Versions: 1 2 3 4 5 6 7 8 9 10 11 12 13 14 15
000
FTUS45 KBOU 101729
TAFAPA
TAF
KAPA 101729Z 1018/1118 VRB05KT P6SM FEW200
     FM110000 16007KT P6SM FEW200
     FM110300 19008KT P6SM FEW200
     FM111600 14008KT P6SM FEW120 SCT200=

USA.gov is the U.S. government's official web portal to all federal, state and local government web resources and services.